Terminal Aerodrome Forecast
Issued by NWS

Home | Current Version | Previous Version | Text Only | Print | Product List | Glossary On
Versions: 1 2 3 4 5 6 7 8 9 10 11 12 13 14 15 16 17 18 19 20 21 22
000
FTUS41 KGYX 301720
TAFRKD
TAF
KRKD 301720Z 3018/3118 18007KT P6SM SKC
     FM301900 20012KT P6SM SCT050
     FM310900 22011KT 3SM -SHRA BR SCT007 OVC020
     FM311400 36010KT 3SM -RA OVC012
      AMD LTD TO CLD VIS AND WIND=

USA.gov is the U.S. government's official web portal to all federal, state and local government web resources and services.